createdAt,value
2023-04-16T00:00:06.341Z,8.8300
2023-04-16T00:01:07.351Z,8.9235
2023-04-16T00:02:08.507Z,8.9011
2023-04-16T00:03:09.569Z,9.1188
2023-04-16T00:04:10.597Z,9.3827
2023-04-16T00:05:11.525Z,9.4246
2023-04-16T00:06:12.511Z,9.2548
2023-04-16T00:07:13.566Z,9.0484
2023-04-16T00:08:14.645Z,8.9263
2023-04-16T00:09:15.645Z,8.6947
2023-04-16T00:10:16.729Z,8.5629
2023-04-16T00:11:17.779Z,8.6537
2023-04-16T00:12:18.764Z,8.4698
2023-04-16T00:13:19.801Z,8.3055
2023-04-16T00:14:20.847Z,8.2740
2023-04-16T00:15:22.010Z,8.4052
2023-04-16T00:16:23.032Z,8.5730
2023-04-16T00:17:24.046Z,8.7355
2023-04-16T00:18:25.050Z,8.8755
2023-04-16T00:19:26.100Z,8.7654
2023-04-16T00:20:27.143Z,8.5961
2023-04-16T00:21:28.191Z,8.5010
2023-04-16T00:22:29.210Z,8.4973
2023-04-16T00:23:30.222Z,8.7860
2023-04-16T00:24:31.268Z,8.9194
2023-04-16T00:25:32.352Z,8.7825
2023-04-16T00:26:33.346Z,8.6861
2023-04-16T00:27:34.400Z,8.9097
2023-04-16T00:28:35.402Z,9.2947
2023-04-16T00:29:36.404Z,9.2744
2023-04-16T00:30:37.471Z,9.1087
2023-04-16T00:31:38.451Z,8.8270
2023-04-16T00:32:39.540Z,8.7665
2023-04-16T00:33:40.512Z,8.8689
2023-04-16T00:34:41.665Z,8.8985
2023-04-16T00:35:42.645Z,8.8005
2023-04-16T00:36:43.648Z,8.6057
2023-04-16T00:37:44.694Z,8.4376
2023-04-16T00:38:45.681Z,8.3040
2023-04-16T00:39:46.787Z,8.1864
2023-04-16T00:40:47.800Z,8.2367
2023-04-16T00:41:48.805Z,8.3416
2023-04-16T00:42:49.833Z,8.3426
2023-04-16T00:43:50.886Z,8.1901
2023-04-16T00:44:51.925Z,8.1972
2023-04-16T00:45:53.072Z,8.2093
2023-04-16T00:46:54.016Z,8.5359
2023-04-16T00:47:55.142Z,8.7023
2023-04-16T00:48:56.060Z,8.5638
2023-04-16T00:49:57.125Z,8.6903
2023-04-16T00:50:58.183Z,8.7766
2023-04-16T00:51:59.224Z,8.7975
2023-04-16T00:53:00.235Z,8.7519
2023-04-16T00:54:01.266Z,8.7566
2023-04-16T00:55:02.306Z,8.9446
2023-04-16T00:56:03.380Z,8.9906
2023-04-16T00:57:04.384Z,9.0108
2023-04-16T00:58:05.390Z,8.9170
2023-04-16T00:59:06.426Z,9.0040
2023-04-16T01:00:07.462Z,8.9710
2023-04-16T01:01:08.709Z,8.7361
2023-04-16T01:02:09.646Z,8.6526
2023-04-16T01:03:10.756Z,8.8022
2023-04-16T01:04:11.846Z,8.7823
2023-04-16T01:05:12.728Z,8.8246
2023-04-16T01:06:13.762Z,9.0554
2023-04-16T01:07:14.764Z,8.9109
2023-04-16T01:08:15.825Z,8.9112
2023-04-16T01:09:16.861Z,8.9353
2023-04-16T01:10:17.934Z,8.6603
2023-04-16T01:11:18.999Z,8.7186
2023-04-16T01:12:19.985Z,8.7560
2023-04-16T01:13:21.009Z,8.9058
2023-04-16T01:14:22.047Z,9.0020
2023-04-16T01:15:23.104Z,9.0870
2023-04-16T01:16:24.288Z,8.9787
2023-04-16T01:17:25.174Z,8.8674
2023-04-16T01:18:26.264Z,8.9524
2023-04-16T01:19:27.265Z,8.9049
2023-04-16T01:20:28.287Z,8.8348
2023-04-16T01:21:29.328Z,8.9569
2023-04-16T01:22:30.351Z,9.0714
2023-04-16T01:23:31.385Z,9.0146
2023-04-16T01:24:32.975Z,8.9791
2023-04-16T01:25:33.386Z,8.8818
2023-04-16T01:26:34.405Z,8.8401
2023-04-16T01:27:35.437Z,8.8172
2023-04-16T01:28:36.489Z,9.0601
2023-04-16T01:29:37.508Z,8.9654
2023-04-16T01:30:38.529Z,8.8911
2023-04-16T01:31:39.656Z,8.7429
2023-04-16T01:32:40.630Z,8.8017
2023-04-16T01:33:41.633Z,8.8892
2023-04-16T01:34:42.688Z,8.8427
2023-04-16T01:35:43.725Z,8.7585
2023-04-16T01:36:44.793Z,8.7906
2023-04-16T01:37:45.809Z,8.7826
2023-04-16T01:38:46.846Z,8.8612
2023-04-16T01:39:47.876Z,8.8281
2023-04-16T01:40:48.920Z,8.6928
2023-04-16T01:41:49.967Z,8.5560
2023-04-16T01:42:50.980Z,8.7229
2023-04-16T01:43:51.987Z,8.6796
2023-04-16T01:44:53.008Z,8.7521
2023-04-16T01:45:54.060Z,8.7735
2023-04-16T01:46:55.153Z,8.8325
2023-04-16T01:47:56.149Z,8.8433
2023-04-16T01:48:57.181Z,8.7437
2023-04-16T01:49:58.276Z,8.7009
2023-04-16T01:50:59.234Z,8.8146
2023-04-16T01:52:00.298Z,8.9326
2023-04-16T01:53:01.328Z,8.8854
2023-04-16T01:54:02.347Z,8.5599
2023-04-16T01:55:03.383Z,8.3022
2023-04-16T01:56:04.425Z,8.2060
2023-04-16T01:57:05.520Z,8.4672
2023-04-16T01:58:06.605Z,8.6109
2023-04-16T01:59:08.044Z,8.6904
2023-04-16T02:00:08.641Z,8.8010
2023-04-16T02:01:09.750Z,8.7981
2023-04-16T02:02:10.758Z,8.7407
2023-04-16T02:03:11.935Z,8.7288
2023-04-16T02:04:12.822Z,8.7724
2023-04-16T02:05:13.811Z,8.8066
2023-04-16T02:06:14.851Z,8.8952
2023-04-16T02:07:15.896Z,8.9272
2023-04-16T02:08:17.063Z,8.9264
2023-04-16T02:09:17.958Z,8.7728
2023-04-16T02:10:19.005Z,8.9496
2023-04-16T02:11:20.024Z,9.1693
2023-04-16T02:12:21.006Z,8.9882
2023-04-16T02:13:22.040Z,8.9398
2023-04-16T02:14:23.052Z,9.1704
2023-04-16T02:15:24.075Z,9.2503
2023-04-16T02:16:25.153Z,9.1812
2023-04-16T02:17:26.172Z,9.1659
2023-04-16T02:18:27.206Z,9.1209
2023-04-16T02:19:28.202Z,8.9335
2023-04-16T02:20:29.263Z,9.1376
2023-04-16T02:21:30.281Z,9.2674
2023-04-16T02:22:31.323Z,9.3338
2023-04-16T02:23:32.384Z,9.2641
2023-04-16T02:24:33.379Z,9.2672
2023-04-16T02:25:34.423Z,9.0634
2023-04-16T02:26:35.441Z,8.8434
2023-04-16T02:27:36.484Z,8.7460
2023-04-16T02:28:37.561Z,8.7641
2023-04-16T02:29:38.528Z,8.7577
2023-04-16T02:30:39.609Z,8.7777
2023-04-16T02:31:40.680Z,8.9003
2023-04-16T02:32:41.713Z,9.1288
2023-04-16T02:33:42.719Z,9.0439
2023-04-16T02:34:43.739Z,8.9466
2023-04-16T02:35:44.782Z,8.9689
2023-04-16T02:36:45.785Z,8.9668
2023-04-16T02:37:46.855Z,8.8289
2023-04-16T02:38:47.928Z,8.7912
2023-04-16T02:39:48.923Z,8.8112
2023-04-16T02:40:49.947Z,8.8003
2023-04-16T02:41:51.008Z,8.5016
2023-04-16T02:42:52.029Z,8.3705
2023-04-16T02:43:53.101Z,8.5297
2023-04-16T02:44:54.100Z,8.6828
2023-04-16T02:45:55.236Z,8.6171
2023-04-16T02:46:56.302Z,8.9475
2023-04-16T02:47:57.397Z,8.9267
2023-04-16T02:48:58.367Z,8.6882
2023-04-16T02:49:59.350Z,8.5714
2023-04-16T02:51:00.394Z,8.4980
2023-04-16T02:52:01.449Z,8.4564
2023-04-16T02:53:02.464Z,8.4508
2023-04-16T02:54:03.574Z,8.3285
2023-04-16T02:55:04.623Z,8.4035
2023-04-16T02:56:05.593Z,8.4160
2023-04-16T02:57:06.646Z,8.4928
2023-04-16T02:58:07.657Z,8.7139
2023-04-16T02:59:08.937Z,8.8212
2023-04-16T03:00:09.769Z,8.7404
2023-04-16T03:01:10.850Z,8.8343
2023-04-16T03:02:11.885Z,8.9355
2023-04-16T03:03:12.945Z,8.7574
2023-04-16T03:04:13.945Z,8.6520
2023-04-16T03:05:14.933Z,8.6050
2023-04-16T03:06:16.031Z,8.3909
2023-04-16T03:07:17.069Z,8.5584
2023-04-16T03:08:18.051Z,8.7699
2023-04-16T03:09:19.091Z,8.8431
2023-04-16T03:10:20.134Z,8.8351
2023-04-16T03:11:21.191Z,8.8783
2023-04-16T03:12:22.174Z,8.6848
2023-04-16T03:13:23.234Z,8.3656
2023-04-16T03:14:24.311Z,8.3364
2023-04-16T03:15:25.323Z,8.3208
2023-04-16T03:16:26.353Z,8.5311
2023-04-16T03:17:27.429Z,8.5117
2023-04-16T03:18:28.396Z,8.5169
2023-04-16T03:19:29.475Z,8.4348
2023-04-16T03:20:30.492Z,8.3386
2023-04-16T03:21:31.552Z,8.2439
2023-04-16T03:22:32.582Z,8.3445
2023-04-16T03:23:33.625Z,8.2797
2023-04-16T03:24:34.689Z,8.2796
2023-04-16T03:25:35.730Z,8.3353
2023-04-16T03:26:36.722Z,8.4815
2023-04-16T03:27:37.774Z,8.5146
2023-04-16T03:28:38.818Z,8.4197
2023-04-16T03:29:39.883Z,8.2885
2023-04-16T03:30:40.902Z,8.2186
2023-04-16T03:31:41.989Z,8.1741
2023-04-16T03:32:43.063Z,8.4464
2023-04-16T03:33:43.998Z,8.4158
2023-04-16T03:34:45.089Z,8.3277
2023-04-16T03:35:46.125Z,8.4231
2023-04-16T03:36:47.298Z,8.6659
2023-04-16T03:37:48.156Z,8.5656
2023-04-16T03:38:49.206Z,8.3437
2023-04-16T03:39:50.310Z,8.2275
2023-04-16T03:40:51.304Z,8.1219
2023-04-16T03:41:52.382Z,8.0213
2023-04-16T03:42:53.436Z,8.1813
2023-04-16T03:43:54.623Z,8.3729
2023-04-16T03:44:55.502Z,8.4230
2023-04-16T03:45:56.577Z,8.4591
2023-04-16T03:46:57.659Z,8.4762
2023-04-16T03:47:58.656Z,8.3076
2023-04-16T03:48:59.694Z,8.0841
2023-04-16T03:50:00.732Z,8.1088
2023-04-16T03:51:01.812Z,8.2221
2023-04-16T03:52:02.852Z,8.3692
2023-04-16T03:53:03.831Z,8.3573
2023-04-16T03:54:04.883Z,8.1797
2023-04-16T03:55:05.831Z,8.2164
2023-04-16T03:56:06.900Z,8.5196
2023-04-16T03:57:07.895Z,8.5888
2023-04-16T03:58:08.952Z,8.4244
2023-04-16T03:59:10.139Z,8.3380
2023-04-16T04:00:11.038Z,8.1128
2023-04-16T04:01:12.082Z,8.0105
2023-04-16T04:02:13.263Z,8.1532
2023-04-16T04:03:14.310Z,8.3325
2023-04-16T04:04:15.234Z,8.3107
2023-04-16T04:05:16.217Z,8.2202
2023-04-16T04:06:17.294Z,8.2320
2023-04-16T04:07:18.311Z,8.2330
2023-04-16T04:08:19.313Z,8.1350
2023-04-16T04:09:20.396Z,7.9579
2023-04-16T04:10:21.410Z,8.0468
2023-04-16T04:11:22.478Z,8.1153
2023-04-16T04:12:23.481Z,8.3027
2023-04-16T04:13:24.526Z,8.3586
2023-04-16T04:14:25.556Z,8.1526
2023-04-16T04:15:26.616Z,8.1917
2023-04-16T04:16:27.699Z,8.2456
2023-04-16T04:17:28.667Z,8.2183
2023-04-16T04:18:29.713Z,8.3256
2023-04-16T04:19:30.777Z,8.2367
2023-04-16T04:20:31.807Z,8.1877
2023-04-16T04:21:32.896Z,8.1813
2023-04-16T04:22:33.877Z,8.0207
2023-04-16T04:23:34.924Z,8.0562
2023-04-16T04:24:35.971Z,8.2690
2023-04-16T04:25:37.002Z,8.3937
2023-04-16T04:26:38.183Z,8.3682
2023-04-16T04:27:39.060Z,8.4225
2023-04-16T04:28:40.175Z,8.6452
2023-04-16T04:29:41.204Z,8.7169
2023-04-16T04:30:42.382Z,8.5851
2023-04-16T04:31:43.515Z,8.3993
2023-04-16T04:32:44.371Z,8.3639
2023-04-16T04:33:45.365Z,8.1438
2023-04-16T04:34:46.415Z,7.9127
2023-04-16T04:35:47.544Z,7.9126
2023-04-16T04:36:48.522Z,7.9295
2023-04-16T04:37:49.557Z,7.9630
2023-04-16T04:38:50.566Z,8.2274
2023-04-16T04:39:51.609Z,8.1765
2023-04-16T04:40:52.690Z,8.0214
2023-04-16T04:41:53.703Z,8.0314
2023-04-16T04:42:54.733Z,8.1659
2023-04-16T04:43:55.791Z,8.1275
2023-04-16T04:44:56.822Z,8.0524
2023-04-16T04:45:57.881Z,8.1249
2023-04-16T04:46:58.923Z,8.2179
2023-04-16T04:47:59.951Z,8.3044
2023-04-16T04:49:00.966Z,8.4576
2023-04-16T04:50:01.988Z,8.3420
2023-04-16T04:51:05.032Z,8.2760
2023-04-16T04:52:04.063Z,8.1977
2023-04-16T04:53:05.042Z,8.0088
2023-04-16T04:54:06.105Z,8.0326
2023-04-16T04:55:07.162Z,8.1165
2023-04-16T04:56:12.796Z,8.0133
2023-04-16T04:57:09.286Z,8.0055
2023-04-16T04:58:10.269Z,7.9290
2023-04-16T04:59:11.450Z,7.9313
2023-04-16T05:00:12.326Z,7.9354
2023-04-16T05:01:13.367Z,8.0640
2023-04-16T05:02:14.532Z,8.1162
2023-04-16T05:03:15.489Z,8.2867
2023-04-16T05:04:16.598Z,8.2880
2023-04-16T05:05:17.586Z,8.2996
2023-04-16T05:06:18.567Z,8.3898
2023-04-16T05:07:19.589Z,8.3453
2023-04-16T05:08:20.639Z,8.2980
2023-04-16T05:09:21.663Z,8.2965
2023-04-16T05:10:22.693Z,8.2108
2023-04-16T05:11:23.716Z,8.1668
2023-04-16T05:12:24.775Z,8.3240
2023-04-16T05:13:25.811Z,8.6074
2023-04-16T05:14:26.852Z,8.5862
2023-04-16T05:15:27.896Z,8.6998
2023-04-16T05:16:28.978Z,8.8441
2023-04-16T05:17:30.038Z,8.8316
2023-04-16T05:18:30.972Z,8.6765
2023-04-16T05:19:32.070Z,8.6042
2023-04-16T05:20:33.068Z,8.7394
2023-04-16T05:21:34.106Z,8.9512
2023-04-16T05:22:35.178Z,9.0703
2023-04-16T05:23:36.221Z,8.9645
2023-04-16T05:24:37.277Z,8.9692
2023-04-16T05:25:38.333Z,8.8789
2023-04-16T05:26:39.369Z,8.5506
2023-04-16T05:27:40.478Z,8.1967
2023-04-16T05:28:41.459Z,8.2515
2023-04-16T05:29:42.492Z,8.3851
2023-04-16T05:30:43.588Z,8.5768
2023-04-16T05:31:44.574Z,8.5356
2023-04-16T05:32:45.683Z,8.5755
2023-04-16T05:33:46.658Z,8.5192
2023-04-16T05:34:47.719Z,8.3997
2023-04-16T05:35:48.675Z,8.4598
2023-04-16T05:36:49.690Z,8.6593
2023-04-16T05:37:50.793Z,8.6603
2023-04-16T05:38:51.828Z,8.6092
2023-04-16T05:39:52.932Z,8.4046
2023-04-16T05:40:53.855Z,8.1710
2023-04-16T05:41:54.902Z,8.1827
2023-04-16T05:42:56.013Z,8.2913
2023-04-16T05:43:56.984Z,8.4122
2023-04-16T05:44:58.027Z,8.4058
2023-04-16T05:45:59.108Z,8.4834
2023-04-16T05:47:00.094Z,8.5715
2023-04-16T05:48:01.196Z,8.5225
2023-04-16T05:49:02.189Z,8.4693
2023-04-16T05:50:03.190Z,8.5666
2023-04-16T05:51:04.306Z,8.6736
2023-04-16T05:52:05.275Z,8.7570
2023-04-16T05:53:06.292Z,8.8572
2023-04-16T05:54:07.365Z,8.7477
2023-04-16T05:55:08.349Z,8.7613
2023-04-16T05:56:09.390Z,8.5904
2023-04-16T05:57:10.433Z,8.4049
2023-04-16T05:58:11.470Z,8.2327
2023-04-16T05:59:12.555Z,8.4603
2023-04-16T06:00:13.526Z,8.6470
2023-04-16T06:01:14.600Z,8.6244
2023-04-16T06:02:15.710Z,8.4254
2023-04-16T06:03:16.828Z,8.1513
2023-04-16T06:04:17.875Z,7.9045
2023-04-16T06:05:18.738Z,7.8766
2023-04-16T06:06:19.783Z,7.8955
2023-04-16T06:07:20.836Z,7.9532
2023-04-16T06:08:21.849Z,8.0234
2023-04-16T06:09:23.024Z,8.1065
2023-04-16T06:10:23.939Z,7.9911
2023-04-16T06:11:24.993Z,7.9262
2023-04-16T06:12:26.025Z,7.9370
2023-04-16T06:13:27.080Z,8.0214
2023-04-16T06:14:28.168Z,8.2163
2023-04-16T06:15:29.132Z,8.3077
2023-04-16T06:16:30.259Z,8.1911
2023-04-16T06:17:31.265Z,8.2031
2023-04-16T06:18:32.294Z,8.3368
2023-04-16T06:19:33.344Z,8.2817
2023-04-16T06:20:34.351Z,7.9415
2023-04-16T06:21:35.380Z,7.9232
2023-04-16T06:22:36.417Z,8.0322
2023-04-16T06:23:37.486Z,8.0580
2023-04-16T06:24:38.558Z,8.0841
2023-04-16T06:25:39.554Z,8.1266
2023-04-16T06:26:40.576Z,8.2038
2023-04-16T06:27:41.615Z,8.2073
2023-04-16T06:28:42.648Z,8.2412
2023-04-16T06:29:43.750Z,8.2275
2023-04-16T06:30:44.861Z,8.2477
2023-04-16T06:31:45.813Z,8.2763
2023-04-16T06:32:46.862Z,8.1749
2023-04-16T06:33:47.856Z,8.2435
2023-04-16T06:34:49.161Z,8.2713
2023-04-16T06:35:49.928Z,8.3783
2023-04-16T06:36:50.968Z,8.4771
2023-04-16T06:37:52.004Z,8.5732
2023-04-16T06:38:53.050Z,8.5771
2023-04-16T06:39:54.131Z,8.6148
2023-04-16T06:40:55.116Z,8.5161
2023-04-16T06:41:56.185Z,8.6021
2023-04-16T06:42:57.216Z,8.5561
2023-04-16T06:43:58.231Z,8.4544
2023-04-16T06:44:59.292Z,8.4035
2023-04-16T06:46:00.303Z,8.4980
2023-04-16T06:47:01.407Z,8.4952
2023-04-16T06:48:02.433Z,8.4056
2023-04-16T06:49:03.435Z,8.2837
2023-04-16T06:50:04.564Z,8.0659
2023-04-16T06:51:05.509Z,8.1657
2023-04-16T06:52:06.546Z,8.3206
2023-04-16T06:53:07.559Z,8.4428
2023-04-16T06:54:08.619Z,8.4628
2023-04-16T06:55:09.704Z,8.1036
2023-04-16T06:56:10.709Z,7.8423
2023-04-16T06:57:11.714Z,7.8600
2023-04-16T06:58:12.780Z,7.8657
2023-04-16T06:59:13.755Z,7.8796
2023-04-16T07:00:14.855Z,7.9505
2023-04-16T07:01:15.905Z,8.0508
2023-04-16T07:02:17.022Z,8.1534
2023-04-16T07:03:18.017Z,8.1576
2023-04-16T07:04:19.013Z,8.0860
2023-04-16T07:05:20.184Z,8.0515
2023-04-16T07:06:21.160Z,7.9802
2023-04-16T07:07:22.322Z,8.0760
2023-04-16T07:08:23.193Z,8.1781
2023-04-16T07:09:24.259Z,8.2024
2023-04-16T07:10:25.582Z,8.1113
2023-04-16T07:11:26.306Z,8.0841
2023-04-16T07:12:27.366Z,8.1224
2023-04-16T07:13:28.590Z,8.2812
2023-04-16T07:14:29.440Z,8.3734
2023-04-16T07:15:30.526Z,8.2726
2023-04-16T07:16:31.596Z,8.1815
2023-04-16T07:17:32.594Z,8.1962
2023-04-16T07:18:33.586Z,8.3939
2023-04-16T07:19:34.603Z,8.1862
2023-04-16T07:20:35.671Z,8.0202
2023-04-16T07:21:36.745Z,7.7847
2023-04-16T07:22:37.729Z,7.6420
2023-04-16T07:23:38.745Z,7.6111
2023-04-16T07:24:39.788Z,7.7044
2023-04-16T07:25:41.160Z,7.7947
2023-04-16T07:26:41.876Z,7.8652
2023-04-16T07:27:42.923Z,7.8765
2023-04-16T07:28:43.955Z,7.8079
2023-04-16T07:29:44.984Z,7.8120
2023-04-16T07:30:46.048Z,7.8241
2023-04-16T07:31:47.151Z,7.8596
2023-04-16T07:32:48.162Z,7.9681
2023-04-16T07:33:49.148Z,7.9103
2023-04-16T07:34:50.235Z,8.0290
2023-04-16T07:35:51.240Z,8.1109
2023-04-16T07:36:52.309Z,8.0059
2023-04-16T07:37:53.310Z,7.8310
2023-04-16T07:38:54.386Z,7.8234
2023-04-16T07:39:57.375Z,7.9308
2023-04-16T07:40:56.411Z,8.0892
2023-04-16T07:41:57.524Z,8.0340
2023-04-16T07:42:58.494Z,7.9372
2023-04-16T07:43:59.558Z,7.6993
2023-04-16T07:45:00.585Z,7.7246
2023-04-16T07:46:01.655Z,7.8371
2023-04-16T07:47:05.246Z,7.9755
2023-04-16T07:48:03.718Z,8.0627
2023-04-16T07:49:04.751Z,8.0575
2023-04-16T07:50:05.767Z,8.0709
2023-04-16T07:51:06.812Z,8.1180
2023-04-16T07:52:07.866Z,8.0792
2023-04-16T07:53:08.869Z,8.0314
2023-04-16T07:54:09.882Z,8.0530
2023-04-16T07:55:10.909Z,8.1153
2023-04-16T07:56:11.940Z,8.1562
2023-04-16T07:57:13.053Z,8.0128
2023-04-16T07:58:14.027Z,8.0092
2023-04-16T07:59:22.728Z,7.9331
2023-04-16T08:00:16.122Z,7.8756
2023-04-16T08:01:17.145Z,8.2981
2023-04-16T08:02:18.284Z,8.5933
2023-04-16T08:03:19.428Z,8.5686
2023-04-16T08:04:20.434Z,8.4569
2023-04-16T08:05:21.372Z,8.3813
2023-04-16T08:06:22.316Z,8.2006
2023-04-16T08:07:23.419Z,8.2695
2023-04-16T08:08:24.398Z,8.1770
2023-04-16T08:09:25.449Z,7.9549
2023-04-16T08:10:26.480Z,8.0264
2023-04-16T08:11:27.544Z,8.0665
2023-04-16T08:12:28.650Z,8.2325
2023-04-16T08:13:30.851Z,8.4986
2023-04-16T08:14:30.678Z,8.5358
2023-04-16T08:15:31.736Z,8.5270
2023-04-16T08:16:32.719Z,8.3798
2023-04-16T08:17:33.825Z,8.3521
2023-04-16T08:18:34.847Z,8.3500
2023-04-16T08:19:35.856Z,8.2380
2023-04-16T08:20:36.903Z,8.1596
2023-04-16T08:21:37.900Z,8.2676
2023-04-16T08:22:38.948Z,8.3807
2023-04-16T08:23:40.026Z,8.4080
2023-04-16T08:24:41.036Z,8.4906
2023-04-16T08:25:42.100Z,8.6008
2023-04-16T08:26:43.096Z,8.5165
2023-04-16T08:27:44.149Z,8.6332
2023-04-16T08:28:45.211Z,8.4729
2023-04-16T08:29:46.199Z,8.4079
2023-04-16T08:30:47.236Z,8.3717
2023-04-16T08:31:48.328Z,8.4880
2023-04-16T08:32:50.233Z,8.5069
2023-04-16T08:33:50.409Z,8.3361
2023-04-16T08:34:51.442Z,8.2677
2023-04-16T08:35:52.471Z,8.1983
2023-04-16T08:36:53.503Z,8.0843
2023-04-16T08:37:54.562Z,8.0918
2023-04-16T08:38:55.603Z,8.2895
2023-04-16T08:39:56.583Z,8.4058
2023-04-16T08:40:57.620Z,8.2884
2023-04-16T08:41:58.701Z,8.2351
2023-04-16T08:42:59.694Z,8.2254
2023-04-16T08:44:00.970Z,8.2193
2023-04-16T08:45:01.806Z,8.2449
2023-04-16T08:46:02.830Z,8.2762
2023-04-16T08:47:03.973Z,8.3896
2023-04-16T08:48:05.006Z,8.2314
2023-04-16T08:49:06.000Z,8.1352
2023-04-16T08:50:07.005Z,8.2156
2023-04-16T08:51:08.058Z,8.2236
2023-04-16T08:52:09.095Z,8.2583
2023-04-16T08:53:10.108Z,8.1373
2023-04-16T08:54:11.193Z,7.9859
2023-04-16T08:55:12.192Z,7.9465
2023-04-16T08:56:13.255Z,8.0645
2023-04-16T08:57:14.248Z,8.2872
2023-04-16T08:58:15.400Z,8.2962
2023-04-16T08:59:16.383Z,8.1750
2023-04-16T09:00:17.381Z,7.9708
2023-04-16T09:01:18.539Z,7.9518
2023-04-16T09:02:19.521Z,8.0005
2023-04-16T09:03:20.687Z,8.2000
2023-04-16T09:04:21.672Z,8.5988
2023-04-16T09:05:22.622Z,8.5199
2023-04-16T09:06:23.638Z,8.4401
2023-04-16T09:07:24.696Z,8.5104
2023-04-16T09:08:25.907Z,8.5740
2023-04-16T09:09:27.197Z,8.5278
2023-04-16T09:10:27.796Z,8.5955
2023-04-16T09:11:28.810Z,8.7368
2023-04-16T09:12:29.853Z,8.8678
2023-04-16T09:13:30.895Z,8.8637
2023-04-16T09:14:31.955Z,8.8500
2023-04-16T09:15:35.038Z,8.7902
2023-04-16T09:16:34.028Z,8.7286
2023-04-16T09:17:35.097Z,8.7119
2023-04-16T09:18:36.056Z,8.6282
2023-04-16T09:19:37.233Z,8.6354
2023-04-16T09:20:38.113Z,8.6423
2023-04-16T09:21:39.182Z,8.7884
2023-04-16T09:22:40.224Z,8.9124
2023-04-16T09:23:41.235Z,8.9533
2023-04-16T09:24:42.314Z,8.9325
2023-04-16T09:25:43.301Z,9.0041
2023-04-16T09:26:44.504Z,8.9141
2023-04-16T09:27:45.407Z,8.6038
2023-04-16T09:28:46.436Z,8.4042
2023-04-16T09:29:47.500Z,8.3784
2023-04-16T09:30:48.497Z,8.4875
2023-04-16T09:31:49.613Z,8.5256
2023-04-16T09:32:50.645Z,8.5482
2023-04-16T09:33:51.616Z,8.4860
2023-04-16T09:34:52.658Z,8.6176
2023-04-16T09:35:53.776Z,8.8016
2023-04-16T09:36:54.700Z,8.9582
2023-04-16T09:37:55.719Z,8.9908
2023-04-16T09:38:57.786Z,9.1152
2023-04-16T09:39:57.860Z,9.1617
2023-04-16T09:40:58.901Z,9.1188
2023-04-16T09:41:59.979Z,8.8752
2023-04-16T09:43:00.969Z,8.7412
2023-04-16T09:44:02.030Z,8.8822
2023-04-16T09:45:05.457Z,8.9055
2023-04-16T09:46:07.865Z,8.7429
2023-04-16T09:47:05.102Z,8.7348
2023-04-16T09:48:06.194Z,8.6945
2023-04-16T09:49:07.390Z,8.6535
2023-04-16T09:50:08.233Z,8.6894
2023-04-16T09:51:09.254Z,8.6650
2023-04-16T09:52:10.269Z,8.4832
2023-04-16T09:53:11.313Z,8.3464
2023-04-16T09:54:12.376Z,8.5055
2023-04-16T09:55:13.444Z,8.4265
2023-04-16T09:56:14.496Z,8.5271
2023-04-16T09:57:15.468Z,8.6908
2023-04-16T09:58:16.530Z,8.9272
2023-04-16T09:59:17.543Z,8.8979
2023-04-16T10:00:18.779Z,8.7762
2023-04-16T10:01:19.692Z,8.6757
2023-04-16T10:02:20.718Z,8.6291
2023-04-16T10:03:21.810Z,8.4783
2023-04-16T10:04:22.780Z,8.3620
2023-04-16T10:05:23.779Z,8.3814
2023-04-16T10:06:24.837Z,8.5293
2023-04-16T10:07:25.855Z,8.6585
2023-04-16T10:08:26.913Z,8.7037
2023-04-16T10:09:27.914Z,8.7473
2023-04-16T10:10:28.991Z,8.5111
2023-04-16T10:11:30.062Z,8.4966
2023-04-16T10:12:31.014Z,8.5120
2023-04-16T10:13:32.081Z,8.7914
2023-04-16T10:14:33.195Z,8.7928
2023-04-16T10:15:34.212Z,8.5556
2023-04-16T10:16:35.226Z,8.4845
2023-04-16T10:17:36.231Z,8.4382
2023-04-16T10:18:37.249Z,8.5445
2023-04-16T10:19:38.314Z,8.6097
2023-04-16T10:20:39.392Z,8.4436
2023-04-16T10:21:40.398Z,8.5440
2023-04-16T10:22:41.400Z,8.4268
2023-04-16T10:23:42.440Z,8.2001
2023-04-16T10:24:43.478Z,8.1922
2023-04-16T10:25:44.520Z,8.3119
2023-04-16T10:26:45.621Z,8.4763
2023-04-16T10:27:46.644Z,8.4858
2023-04-16T10:28:47.644Z,8.5064
2023-04-16T10:29:48.681Z,8.5129
2023-04-16T10:30:49.756Z,8.4940
2023-04-16T10:31:50.819Z,8.5509
2023-04-16T10:32:51.855Z,8.6361
2023-04-16T10:33:52.876Z,8.7386
2023-04-16T10:34:53.910Z,8.6725
2023-04-16T10:36:04.892Z,8.6802
2023-04-16T10:36:56.080Z,8.8162
2023-04-16T10:37:56.985Z,8.9838
2023-04-16T10:38:58.031Z,8.8237
2023-04-16T10:39:59.070Z,8.8766
2023-04-16T10:41:00.103Z,8.9722
2023-04-16T10:42:01.171Z,9.0239
2023-04-16T10:43:02.184Z,9.0367
2023-04-16T10:44:03.217Z,9.0523
2023-04-16T10:45:04.269Z,9.1411
2023-04-16T10:46:05.304Z,9.2836
2023-04-16T10:47:06.424Z,9.3699
2023-04-16T10:48:08.018Z,9.3458
2023-04-16T10:49:08.670Z,9.3886
2023-04-16T10:50:09.430Z,9.3546
2023-04-16T10:51:10.449Z,9.2549
2023-04-16T10:52:11.509Z,9.1734
2023-04-16T10:53:12.534Z,9.2521
2023-04-16T10:54:13.563Z,9.5003
2023-04-16T10:55:14.604Z,9.4435
2023-04-16T10:56:15.645Z,9.4949
2023-04-16T10:57:16.718Z,9.4188
2023-04-16T10:58:17.707Z,9.3990
2023-04-16T10:59:18.758Z,9.4160
2023-04-16T11:00:20.024Z,9.4088
2023-04-16T11:01:20.885Z,9.5476
2023-04-16T11:02:22.026Z,9.7718
2023-04-16T11:03:23.045Z,9.6883
2023-04-16T11:04:24.010Z,9.5065
2023-04-16T11:05:24.986Z,9.5824
2023-04-16T11:06:26.134Z,9.8159
2023-04-16T11:07:27.147Z,10.1030
2023-04-16T11:08:28.188Z,9.7619
2023-04-16T11:09:29.208Z,9.4099
2023-04-16T11:10:30.246Z,9.3297
2023-04-16T11:11:31.289Z,9.4253
2023-04-16T11:12:32.380Z,9.4961
2023-04-16T11:13:33.378Z,9.5133
2023-04-16T11:14:34.428Z,9.5671
2023-04-16T11:15:35.474Z,9.5767
2023-04-16T11:16:36.495Z,9.5179
2023-04-16T11:17:37.613Z,9.4011
2023-04-16T11:18:38.566Z,9.2908
2023-04-16T11:19:39.584Z,9.4191
2023-04-16T11:20:40.657Z,9.5677
2023-04-16T11:21:41.651Z,9.5073
2023-04-16T11:22:42.749Z,9.6171
2023-04-16T11:23:43.808Z,9.7827
2023-04-16T11:24:44.852Z,9.7970
2023-04-16T11:25:45.811Z,9.6029
2023-04-16T11:26:46.844Z,9.6702
2023-04-16T11:27:48.046Z,9.6562
2023-04-16T11:28:48.941Z,9.6942
2023-04-16T11:29:49.956Z,9.8088
2023-04-16T11:30:50.993Z,9.8081
2023-04-16T11:31:52.154Z,9.8583
2023-04-16T11:32:53.286Z,9.9163
2023-04-16T11:33:54.124Z,9.9802
2023-04-16T11:34:55.185Z,10.0734
2023-04-16T11:35:56.226Z,10.0973
2023-04-16T11:36:57.258Z,9.9022
2023-04-16T11:37:58.285Z,9.7388
2023-04-16T11:38:59.412Z,9.8420
2023-04-16T11:40:00.442Z,9.6194
2023-04-16T11:41:01.473Z,9.6765
2023-04-16T11:42:02.570Z,9.8206
2023-04-16T11:43:03.609Z,9.8520
2023-04-16T11:44:04.649Z,9.8310
2023-04-16T11:45:05.660Z,9.9324
2023-04-16T11:46:16.588Z,9.7678
2023-04-16T11:47:07.868Z,9.7910
2023-04-16T11:48:11.093Z,9.9975
2023-04-16T11:49:10.136Z,10.1912
2023-04-16T11:50:10.887Z,10.2851
2023-04-16T11:51:11.891Z,10.3370
2023-04-16T11:52:12.953Z,10.4121
2023-04-16T11:53:14.003Z,10.2997
2023-04-16T11:54:15.003Z,10.3701
2023-04-16T11:55:16.033Z,10.4048
2023-04-16T11:56:17.103Z,10.3789
2023-04-16T11:57:18.131Z,10.2522
2023-04-16T11:58:19.265Z,10.1303
2023-04-16T11:59:20.239Z,10.1613
2023-04-16T12:00:23.718Z,9.9126
2023-04-16T12:01:22.315Z,9.7393
2023-04-16T12:02:23.433Z,9.6792
2023-04-16T12:03:24.613Z,9.7625
2023-04-16T12:04:25.546Z,9.8214
2023-04-16T12:05:26.483Z,9.9560
2023-04-16T12:06:27.570Z,10.1466
2023-04-16T12:07:28.555Z,10.3866
2023-04-16T12:08:29.636Z,10.4532
2023-04-16T12:09:30.620Z,10.3309
2023-04-16T12:10:31.708Z,10.3141
2023-04-16T12:11:32.667Z,10.3416
2023-04-16T12:12:33.727Z,10.2692
2023-04-16T12:13:34.824Z,10.2508
2023-04-16T12:14:35.875Z,10.0213
2023-04-16T12:15:36.839Z,9.8579
2023-04-16T12:16:37.911Z,9.9035
2023-04-16T12:17:39.033Z,10.0402
2023-04-16T12:18:39.956Z,10.1211
2023-04-16T12:19:41.000Z,10.3583
2023-04-16T12:20:41.977Z,10.3702
2023-04-16T12:21:43.018Z,10.2106
2023-04-16T12:22:44.050Z,10.0383
2023-04-16T12:23:45.163Z,10.1286
2023-04-16T12:24:46.164Z,9.9434
2023-04-16T12:25:47.196Z,10.0014
2023-04-16T12:26:48.225Z,10.1858
2023-04-16T12:27:52.788Z,10.2043
2023-04-16T12:28:50.342Z,10.3608
2023-04-16T12:29:51.324Z,10.4854
2023-04-16T12:30:52.339Z,10.4617
2023-04-16T12:31:53.317Z,10.5619
2023-04-16T12:32:56.057Z,10.6096
2023-04-16T12:33:55.434Z,10.4919
2023-04-16T12:34:56.435Z,10.6129
2023-04-16T12:35:57.494Z,10.4717
2023-04-16T12:36:58.529Z,10.2429
2023-04-16T12:37:59.529Z,10.2553
2023-04-16T12:39:00.640Z,10.2517
2023-04-16T12:40:01.640Z,10.3195